sensor_id;sensor_type;location;lat;lon;timestamp;P1;durP1;ratioP1;P2;durP2;ratioP2
82410;SDS011;74662;60.040;30.218;2023-12-07T00:00:27;21.33;;;6.03;;
82410;SDS011;74662;60.040;30.218;2023-12-07T00:01:27;21.25;;;6.05;;
82410;SDS011;74662;60.040;30.218;2023-12-07T00:02:28;19.38;;;5.80;;
82410;SDS011;74662;60.040;30.218;2023-12-07T00:03:28;20.38;;;6.38;;
82410;SDS011;74662;60.040;30.218;2023-12-07T00:04:29;17.83;;;5.93;;
82410;SDS011;74662;60.040;30.218;2023-12-07T00:05:30;21.23;;;7.28;;
82410;SDS011;74662;60.040;30.218;2023-12-07T00:06:30;21.52;;;6.72;;
82410;SDS011;74662;60.040;30.218;2023-12-07T00:07:30;20.30;;;6.88;;
82410;SDS011;74662;60.040;30.218;2023-12-07T00:08:31;17.48;;;6.35;;
82410;SDS011;74662;60.040;30.218;2023-12-07T00:09:31;16.92;;;5.68;;
82410;SDS011;74662;60.040;30.218;2023-12-07T00:10:32;26.30;;;7.38;;
82410;SDS011;74662;60.040;30.218;2023-12-07T00:11:32;22.33;;;6.30;;
82410;SDS011;74662;60.040;30.218;2023-12-07T00:12:33;18.63;;;6.18;;
82410;SDS011;74662;60.040;30.218;2023-12-07T00:13:33;17.83;;;6.43;;
82410;SDS011;74662;60.040;30.218;2023-12-07T00:14:34;18.85;;;6.25;;
82410;SDS011;74662;60.040;30.218;2023-12-07T00:15:34;18.02;;;7.00;;
82410;SDS011;74662;60.040;30.218;2023-12-07T00:16:35;20.95;;;6.28;;
82410;SDS011;74662;60.040;30.218;2023-12-07T00:17:36;31.17;;;7.70;;
82410;SDS011;74662;60.040;30.218;2023-12-07T00:18:36;22.55;;;7.85;;
82410;SDS011;74662;60.040;30.218;2023-12-07T00:19:37;17.85;;;6.25;;
82410;SDS011;74662;60.040;30.218;2023-12-07T00:20:37;25.75;;;7.60;;
82410;SDS011;74662;60.040;30.218;2023-12-07T00:21:38;27.75;;;7.72;;
82410;SDS011;74662;60.040;30.218;2023-12-07T00:22:38;23.48;;;6.40;;
82410;SDS011;74662;60.040;30.218;2023-12-07T00:23:39;29.48;;;8.30;;
82410;SDS011;74662;60.040;30.218;2023-12-07T00:24:39;22.75;;;7.38;;
82410;SDS011;74662;60.040;30.218;2023-12-07T00:25:40;21.27;;;7.57;;
82410;SDS011;74662;60.040;30.218;2023-12-07T00:26:40;30.08;;;7.65;;
82410;SDS011;74662;60.040;30.218;2023-12-07T00:27:41;31.50;;;7.35;;
82410;SDS011;74662;60.040;30.218;2023-12-07T00:28:41;22.75;;;7.82;;
82410;SDS011;74662;60.040;30.218;2023-12-07T00:29:42;32.22;;;7.55;;
82410;SDS011;74662;60.040;30.218;2023-12-07T00:30:42;24.67;;;7.18;;
82410;SDS011;74662;60.040;30.218;2023-12-07T00:31:43;24.88;;;8.07;;
82410;SDS011;74662;60.040;30.218;2023-12-07T00:32:44;29.77;;;8.32;;
82410;SDS011;74662;60.040;30.218;2023-12-07T00:33:44;25.85;;;8.00;;
82410;SDS011;74662;60.040;30.218;2023-12-07T00:34:45;34.13;;;8.45;;
82410;SDS011;74662;60.040;30.218;2023-12-07T00:35:46;32.13;;;8.32;;
82410;SDS011;74662;60.040;30.218;2023-12-07T00:36:46;32.83;;;8.65;;
82410;SDS011;74662;60.040;30.218;2023-12-07T00:37:47;24.25;;;7.28;;
82410;SDS011;74662;60.040;30.218;2023-12-07T00:38:47;28.52;;;8.18;;
82410;SDS011;74662;60.040;30.218;2023-12-07T00:39:48;36.95;;;10.00;;
82410;SDS011;74662;60.040;30.218;2023-12-07T00:40:48;33.30;;;9.23;;
82410;SDS011;74662;60.040;30.218;2023-12-07T00:41:49;35.30;;;9.68;;
82410;SDS011;74662;60.040;30.218;2023-12-07T00:42:49;39.75;;;10.30;;
82410;SDS011;74662;60.040;30.218;2023-12-07T00:43:50;36.70;;;9.48;;
82410;SDS011;74662;60.040;30.218;2023-12-07T00:44:51;36.97;;;10.32;;
82410;SDS011;74662;60.040;30.218;2023-12-07T00:45:51;43.33;;;10.13;;
82410;SDS011;74662;60.040;30.218;2023-12-07T00:46:52;38.72;;;8.52;;
82410;SDS011;74662;60.040;30.218;2023-12-07T00:47:53;42.38;;;10.35;;
82410;SDS011;74662;60.040;30.218;2023-12-07T00:48:53;39.40;;;11.20;;
82410;SDS011;74662;60.040;30.218;2023-12-07T00:49:54;50.88;;;11.45;;
82410;SDS011;74662;60.040;30.218;2023-12-07T00:50:54;32.15;;;10.30;;
82410;SDS011;74662;60.040;30.218;2023-12-07T00:51:55;34.22;;;10.88;;
82410;SDS011;74662;60.040;30.218;2023-12-07T00:52:55;34.03;;;9.43;;
82410;SDS011;74662;60.040;30.218;2023-12-07T00:53:56;49.50;;;11.73;;
82410;SDS011;74662;60.040;30.218;2023-12-07T00:54:56;36.38;;;9.65;;
82410;SDS011;74662;60.040;30.218;2023-12-07T00:55:57;40.67;;;9.68;;
82410;SDS011;74662;60.040;30.218;2023-12-07T00:56:57;30.98;;;10.50;;
82410;SDS011;74662;60.040;30.218;2023-12-07T00:57:58;33.25;;;8.73;;
82410;SDS011;74662;60.040;30.218;2023-12-07T00:59:01;50.00;;;11.27;;
82410;SDS011;74662;60.040;30.218;2023-12-07T01:00:02;36.53;;;9.20;;
82410;SDS011;74662;60.040;30.218;2023-12-07T01:01:04;38.85;;;9.80;;
82410;SDS011;74662;60.040;30.218;2023-12-07T01:02:04;36.28;;;9.18;;
82410;SDS011;74662;60.040;30.218;2023-12-07T01:04:06;34.17;;;9.30;;
82410;SDS011;74662;60.040;30.218;2023-12-07T01:05:07;32.17;;;8.65;;
82410;SDS011;74662;60.040;30.218;2023-12-07T01:06:08;37.92;;;9.80;;
82410;SDS011;74662;60.040;30.218;2023-12-07T01:07:12;38.97;;;10.90;;
82410;SDS011;74662;60.040;30.218;2023-12-07T01:08:12;26.67;;;9.75;;
82410;SDS011;74662;60.040;30.218;2023-12-07T01:09:13;42.90;;;9.75;;
82410;SDS011;74662;60.040;30.218;2023-12-07T01:10:13;34.20;;;9.77;;
82410;SDS011;74662;60.040;30.218;2023-12-07T01:11:14;40.75;;;10.55;;
82410;SDS011;74662;60.040;30.218;2023-12-07T01:12:15;25.80;;;8.25;;
82410;SDS011;74662;60.040;30.218;2023-12-07T01:13:15;31.67;;;8.95;;
82410;SDS011;74662;60.040;30.218;2023-12-07T01:14:16;36.53;;;9.32;;
82410;SDS011;74662;60.040;30.218;2023-12-07T01:15:17;39.33;;;10.02;;
82410;SDS011;74662;60.040;30.218;2023-12-07T01:16:17;39.45;;;10.18;;
82410;SDS011;74662;60.040;30.218;2023-12-07T01:17:18;37.63;;;9.35;;
82410;SDS011;74662;60.040;30.218;2023-12-07T01:18:18;31.83;;;9.55;;
82410;SDS011;74662;60.040;30.218;2023-12-07T01:19:19;28.15;;;8.55;;
82410;SDS011;74662;60.040;30.218;2023-12-07T01:20:19;28.30;;;9.07;;
82410;SDS011;74662;60.040;30.218;2023-12-07T01:21:20;28.85;;;9.02;;
82410;SDS011;74662;60.040;30.218;2023-12-07T01:22:20;36.70;;;9.77;;
82410;SDS011;74662;60.040;30.218;2023-12-07T01:23:21;30.02;;;9.45;;
82410;SDS011;74662;60.040;30.218;2023-12-07T01:24:21;27.20;;;8.32;;
82410;SDS011;74662;60.040;30.218;2023-12-07T01:25:22;27.35;;;9.07;;
82410;SDS011;74662;60.040;30.218;2023-12-07T01:26:24;32.65;;;8.80;;
82410;SDS011;74662;60.040;30.218;2023-12-07T01:27:24;31.42;;;9.52;;
82410;SDS011;74662;60.040;30.218;2023-12-07T01:28:25;32.35;;;8.45;;
82410;SDS011;74662;60.040;30.218;2023-12-07T01:29:25;31.05;;;9.30;;
82410;SDS011;74662;60.040;30.218;2023-12-07T01:30:26;38.13;;;9.02;;
82410;SDS011;74662;60.040;30.218;2023-12-07T01:31:27;31.83;;;8.18;;
82410;SDS011;74662;60.040;30.218;2023-12-07T01:32:27;26.98;;;8.25;;
82410;SDS011;74662;60.040;30.218;2023-12-07T01:33:28;27.38;;;7.32;;
82410;SDS011;74662;60.040;30.218;2023-12-07T01:34:28;35.15;;;8.10;;
82410;SDS011;74662;60.040;30.218;2023-12-07T01:35:29;28.77;;;8.05;;
82410;SDS011;74662;60.040;30.218;2023-12-07T01:36:29;25.50;;;8.18;;
82410;SDS011;74662;60.040;30.218;2023-12-07T01:37:30;21.75;;;7.20;;
82410;SDS011;74662;60.040;30.218;2023-12-07T01:38:31;32.60;;;8.63;;
82410;SDS011;74662;60.040;30.218;2023-12-07T01:39:31;24.67;;;7.00;;
82410;SDS011;74662;60.040;30.218;2023-12-07T01:41:34;17.85;;;7.00;;
82410;SDS011;74662;60.040;30.218;2023-12-07T01:42:35;25.45;;;6.88;;
82410;SDS011;74662;60.040;30.218;2023-12-07T01:43:35;22.77;;;6.72;;
82410;SDS011;74662;60.040;30.218;2023-12-07T01:44:36;21.83;;;7.20;;
82410;SDS011;74662;60.040;30.218;2023-12-07T01:45:36;29.33;;;7.22;;
82410;SDS011;74662;60.040;30.218;2023-12-07T01:46:37;22.52;;;8.15;;
82410;SDS011;74662;60.040;30.218;2023-12-07T01:47:38;26.13;;;8.73;;
82410;SDS011;74662;60.040;30.218;2023-12-07T01:48:38;24.23;;;7.60;;
82410;SDS011;74662;60.040;30.218;2023-12-07T01:49:39;26.45;;;9.23;;
82410;SDS011;74662;60.040;30.218;2023-12-07T01:51:41;16.77;;;5.75;;
82410;SDS011;74662;60.040;30.218;2023-12-07T01:52:45;25.48;;;8.00;;
82410;SDS011;74662;60.040;30.218;2023-12-07T01:53:48;22.42;;;7.32;;
82410;SDS011;74662;60.040;30.218;2023-12-07T01:54:49;25.58;;;6.75;;
82410;SDS011;74662;60.040;30.218;2023-12-07T01:55:50;24.65;;;7.95;;
82410;SDS011;74662;60.040;30.218;2023-12-07T01:56:52;25.05;;;6.72;;
82410;SDS011;74662;60.040;30.218;2023-12-07T01:57:53;20.10;;;6.50;;
82410;SDS011;74662;60.040;30.218;2023-12-07T01:58:53;23.92;;;6.88;;
82410;SDS011;74662;60.040;30.218;2023-12-07T01:59:54;27.10;;;7.88;;
82410;SDS011;74662;60.040;30.218;2023-12-07T02:00:55;25.95;;;6.97;;
82410;SDS011;74662;60.040;30.218;2023-12-07T02:01:55;24.13;;;8.30;;
82410;SDS011;74662;60.040;30.218;2023-12-07T02:02:56;19.45;;;6.18;;
82410;SDS011;74662;60.040;30.218;2023-12-07T02:03:56;18.40;;;6.22;;
82410;SDS011;74662;60.040;30.218;2023-12-07T02:04:57;18.15;;;5.93;;
82410;SDS011;74662;60.040;30.218;2023-12-07T02:05:58;27.20;;;7.22;;
82410;SDS011;74662;60.040;30.218;2023-12-07T02:06:59;23.40;;;6.35;;
82410;SDS011;74662;60.040;30.218;2023-12-07T02:08:01;27.05;;;7.55;;
82410;SDS011;74662;60.040;30.218;2023-12-07T02:09:02;22.55;;;7.25;;
82410;SDS011;74662;60.040;30.218;2023-12-07T02:10:03;29.00;;;7.07;;
82410;SDS011;74662;60.040;30.218;2023-12-07T02:11:04;16.08;;;6.03;;
82410;SDS011;74662;60.040;30.218;2023-12-07T02:12:05;22.63;;;6.88;;
82410;SDS011;74662;60.040;30.218;2023-12-07T02:13:05;18.33;;;6.53;;
82410;SDS011;74662;60.040;30.218;2023-12-07T02:14:07;19.90;;;6.93;;
82410;SDS011;74662;60.040;30.218;2023-12-07T02:15:07;21.52;;;6.35;;
82410;SDS011;74662;60.040;30.218;2023-12-07T02:16:13;24.45;;;6.78;;
82410;SDS011;74662;60.040;30.218;2023-12-07T02:17:18;22.65;;;7.75;;
82410;SDS011;74662;60.040;30.218;2023-12-07T02:18:37;17.23;;;7.03;;
82410;SDS011;74662;60.040;30.218;2023-12-07T02:19:52;20.40;;;6.05;;
82410;SDS011;74662;60.040;30.218;2023-12-07T02:22:06;14.30;;;6.00;;
82410;SDS011;74662;60.040;30.218;2023-12-07T02:23:15;24.70;;;6.30;;
82410;SDS011;74662;60.040;30.218;2023-12-07T02:24:20;19.65;;;6.13;;
82410;SDS011;74662;60.040;30.218;2023-12-07T02:25:33;18.80;;;6.60;;
82410;SDS011;74662;60.040;30.218;2023-12-07T02:26:39;22.67;;;5.88;;
82410;SDS011;74662;60.040;30.218;2023-12-07T02:27:41;18.60;;;5.97;;
82410;SDS011;74662;60.040;30.218;2023-12-07T02:28:42;18.25;;;6.43;;
82410;SDS011;74662;60.040;30.218;2023-12-07T02:29:43;29.20;;;7.13;;
82410;SDS011;74662;60.040;30.218;2023-12-07T02:30:44;20.13;;;6.53;;
82410;SDS011;74662;60.040;30.218;2023-12-07T02:31:45;17.88;;;6.35;;
82410;SDS011;74662;60.040;30.218;2023-12-07T02:32:46;25.85;;;6.68;;
82410;SDS011;74662;60.040;30.218;2023-12-07T02:33:46;22.77;;;5.88;;
82410;SDS011;74662;60.040;30.218;2023-12-07T02:34:47;25.08;;;7.03;;
82410;SDS011;74662;60.040;30.218;2023-12-07T02:35:47;23.88;;;6.57;;
82410;SDS011;74662;60.040;30.218;2023-12-07T02:36:48;23.63;;;7.05;;
82410;SDS011;74662;60.040;30.218;2023-12-07T02:37:53;17.83;;;5.78;;
82410;SDS011;74662;60.040;30.218;2023-12-07T02:38:58;22.30;;;6.88;;
82410;SDS011;74662;60.040;30.218;2023-12-07T02:40:01;19.38;;;6.35;;
82410;SDS011;74662;60.040;30.218;2023-12-07T02:41:04;15.35;;;6.35;;
82410;SDS011;74662;60.040;30.218;2023-12-07T02:42:06;25.05;;;7.00;;
82410;SDS011;74662;60.040;30.218;2023-12-07T02:44:08;11.25;;;4.60;;
82410;SDS011;74662;60.040;30.218;2023-12-07T02:45:10;15.80;;;5.32;;
82410;SDS011;74662;60.040;30.218;2023-12-07T02:46:12;23.25;;;7.50;;
82410;SDS011;74662;60.040;30.218;2023-12-07T02:47:13;19.70;;;6.30;;
82410;SDS011;74662;60.040;30.218;2023-12-07T02:48:14;20.15;;;5.13;;
82410;SDS011;74662;60.040;30.218;2023-12-07T02:49:17;25.17;;;6.25;;
82410;SDS011;74662;60.040;30.218;2023-12-07T02:50:17;16.42;;;5.35;;
82410;SDS011;74662;60.040;30.218;2023-12-07T02:51:18;17.35;;;5.88;;
82410;SDS011;74662;60.040;30.218;2023-12-07T02:52:19;17.67;;;6.47;;
82410;SDS011;74662;60.040;30.218;2023-12-07T02:53:19;18.33;;;6.15;;
82410;SDS011;74662;60.040;30.218;2023-12-07T02:54:20;22.17;;;5.75;;
82410;SDS011;74662;60.040;30.218;2023-12-07T02:55:20;17.38;;;5.43;;
82410;SDS011;74662;60.040;30.218;2023-12-07T02:56:21;18.88;;;5.78;;
82410;SDS011;74662;60.040;30.218;2023-12-07T02:57:21;18.85;;;5.43;;
82410;SDS011;74662;60.040;30.218;2023-12-07T02:58:22;18.83;;;6.22;;
82410;SDS011;74662;60.040;30.218;2023-12-07T02:59:22;17.75;;;5.40;;
82410;SDS011;74662;60.040;30.218;2023-12-07T03:00:23;19.05;;;5.55;;
82410;SDS011;74662;60.040;30.218;2023-12-07T03:01:23;18.73;;;5.88;;
82410;SDS011;74662;60.040;30.218;2023-12-07T03:02:24;20.25;;;6.32;;
82410;SDS011;74662;60.040;30.218;2023-12-07T03:03:25;17.27;;;5.85;;
82410;SDS011;74662;60.040;30.218;2023-12-07T03:04:25;15.75;;;5.47;;
82410;SDS011;74662;60.040;30.218;2023-12-07T03:05:26;16.98;;;6.47;;
82410;SDS011;74662;60.040;30.218;2023-12-07T03:06:26;20.05;;;5.07;;
82410;SDS011;74662;60.040;30.218;2023-12-07T03:07:27;20.40;;;5.63;;
82410;SDS011;74662;60.040;30.218;2023-12-07T03:08:27;15.45;;;5.82;;
82410;SDS011;74662;60.040;30.218;2023-12-07T03:09:28;19.60;;;5.68;;
82410;SDS011;74662;60.040;30.218;2023-12-07T03:10:29;16.92;;;6.07;;
82410;SDS011;74662;60.040;30.218;2023-12-07T03:11:29;21.38;;;5.40;;
82410;SDS011;74662;60.040;30.218;2023-12-07T03:12:30;12.93;;;5.50;;
82410;SDS011;74662;60.040;30.218;2023-12-07T03:13:30;18.88;;;6.63;;
82410;SDS011;74662;60.040;30.218;2023-12-07T03:14:31;15.90;;;5.38;;
82410;SDS011;74662;60.040;30.218;2023-12-07T03:15:31;20.90;;;5.35;;
82410;SDS011;74662;60.040;30.218;2023-12-07T03:16:32;12.10;;;4.82;;
82410;SDS011;74662;60.040;30.218;2023-12-07T03:17:32;13.27;;;5.18;;
82410;SDS011;74662;60.040;30.218;2023-12-07T03:18:33;15.35;;;5.45;;
82410;SDS011;74662;60.040;30.218;2023-12-07T03:19:37;20.92;;;6.47;;
82410;SDS011;74662;60.040;30.218;2023-12-07T03:20:38;14.68;;;5.97;;
82410;SDS011;74662;60.040;30.218;2023-12-07T03:21:39;20.23;;;5.40;;
82410;SDS011;74662;60.040;30.218;2023-12-07T03:22:43;14.32;;;4.65;;
82410;SDS011;74662;60.040;30.218;2023-12-07T03:23:43;15.20;;;4.70;;
82410;SDS011;74662;60.040;30.218;2023-12-07T03:24:45;17.10;;;4.75;;
82410;SDS011;74662;60.040;30.218;2023-12-07T03:25:48;19.58;;;7.18;;
82410;SDS011;74662;60.040;30.218;2023-12-07T03:26:48;17.52;;;5.25;;
82410;SDS011;74662;60.040;30.218;2023-12-07T03:27:49;12.15;;;4.82;;
82410;SDS011;74662;60.040;30.218;2023-12-07T03:28:49;16.67;;;5.35;;
82410;SDS011;74662;60.040;30.218;2023-12-07T03:29:50;15.88;;;4.78;;
82410;SDS011;74662;60.040;30.218;2023-12-07T03:30:51;14.27;;;4.93;;
82410;SDS011;74662;60.040;30.218;2023-12-07T03:31:51;16.27;;;4.78;;
82410;SDS011;74662;60.040;30.218;2023-12-07T03:32:52;14.48;;;5.60;;
82410;SDS011;74662;60.040;30.218;2023-12-07T03:33:53;12.10;;;5.05;;
82410;SDS011;74662;60.040;30.218;2023-12-07T03:34:54;12.75;;;5.47;;
82410;SDS011;74662;60.040;30.218;2023-12-07T03:35:55;15.68;;;5.68;;
82410;SDS011;74662;60.040;30.218;2023-12-07T03:36:55;17.63;;;5.05;;
82410;SDS011;74662;60.040;30.218;2023-12-07T03:37:56;11.77;;;5.35;;
82410;SDS011;74662;60.040;30.218;2023-12-07T03:38:56;12.93;;;4.65;;
82410;SDS011;74662;60.040;30.218;2023-12-07T03:39:57;13.75;;;4.95;;
82410;SDS011;74662;60.040;30.218;2023-12-07T03:40:57;19.15;;;5.30;;
82410;SDS011;74662;60.040;30.218;2023-12-07T03:41:58;15.15;;;4.53;;
82410;SDS011;74662;60.040;30.218;2023-12-07T03:42:58;17.02;;;5.03;;
82410;SDS011;74662;60.040;30.218;2023-12-07T03:43:59;17.50;;;4.95;;
82410;SDS011;74662;60.040;30.218;2023-12-07T03:44:59;14.25;;;5.57;;
82410;SDS011;74662;60.040;30.218;2023-12-07T03:46:03;20.17;;;5.25;;
82410;SDS011;74662;60.040;30.218;2023-12-07T03:47:04;13.27;;;4.45;;
82410;SDS011;74662;60.040;30.218;2023-12-07T03:48:05;14.48;;;5.05;;
82410;SDS011;74662;60.040;30.218;2023-12-07T03:49:06;14.00;;;5.10;;
82410;SDS011;74662;60.040;30.218;2023-12-07T03:50:06;17.38;;;4.88;;
82410;SDS011;74662;60.040;30.218;2023-12-07T03:51:07;15.38;;;4.65;;
82410;SDS011;74662;60.040;30.218;2023-12-07T03:52:08;12.40;;;4.35;;
82410;SDS011;74662;60.040;30.218;2023-12-07T03:53:08;13.07;;;4.93;;
82410;SDS011;74662;60.040;30.218;2023-12-07T03:54:09;12.95;;;4.43;;
82410;SDS011;74662;60.040;30.218;2023-12-07T03:55:10;13.85;;;4.97;;
82410;SDS011;74662;60.040;30.218;2023-12-07T03:56:11;12.15;;;5.00;;
82410;SDS011;74662;60.040;30.218;2023-12-07T03:57:22;17.17;;;5.00;;
82410;SDS011;74662;60.040;30.218;2023-12-07T03:58:22;14.15;;;4.13;;
82410;SDS011;74662;60.040;30.218;2023-12-07T03:59:23;14.77;;;4.50;;
82410;SDS011;74662;60.040;30.218;2023-12-07T04:00:23;15.40;;;5.90;;
82410;SDS011;74662;60.040;30.218;2023-12-07T04:01:24;14.13;;;4.65;;
82410;SDS011;74662;60.040;30.218;2023-12-07T04:02:25;11.73;;;4.55;;
82410;SDS011;74662;60.040;30.218;2023-12-07T04:03:26;16.73;;;5.60;;
82410;SDS011;74662;60.040;30.218;2023-12-07T04:04:26;11.45;;;4.57;;
82410;SDS011;74662;60.040;30.218;2023-12-07T04:05:27;17.27;;;5.70;;
82410;SDS011;74662;60.040;30.218;2023-12-07T04:06:27;18.40;;;4.97;;
82410;SDS011;74662;60.040;30.218;2023-12-07T04:07:28;15.90;;;5.47;;
82410;SDS011;74662;60.040;30.218;2023-12-07T04:08:32;13.95;;;4.57;;
82410;SDS011;74662;60.040;30.218;2023-12-07T04:09:33;17.92;;;4.97;;
82410;SDS011;74662;60.040;30.218;2023-12-07T04:10:33;18.08;;;5.18;;
82410;SDS011;74662;60.040;30.218;2023-12-07T04:11:34;12.73;;;5.07;;
82410;SDS011;74662;60.040;30.218;2023-12-07T04:12:34;16.02;;;5.20;;
82410;SDS011;74662;60.040;30.218;2023-12-07T04:13:36;13.23;;;4.93;;
82410;SDS011;74662;60.040;30.218;2023-12-07T04:15:37;12.07;;;4.35;;
82410;SDS011;74662;60.040;30.218;2023-12-07T04:16:37;14.45;;;4.93;;
82410;SDS011;74662;60.040;30.218;2023-12-07T04:17:38;17.80;;;4.95;;
82410;SDS011;74662;60.040;30.218;2023-12-07T04:18:38;9.13;;;4.10;;
82410;SDS011;74662;60.040;30.218;2023-12-07T04:19:39;15.43;;;4.60;;
82410;SDS011;74662;60.040;30.218;2023-12-07T04:20:39;13.63;;;5.07;;
82410;SDS011;74662;60.040;30.218;2023-12-07T04:21:40;13.25;;;4.63;;
82410;SDS011;74662;60.040;30.218;2023-12-07T04:22:41;22.02;;;5.10;;
82410;SDS011;74662;60.040;30.218;2023-12-07T04:23:41;11.70;;;4.50;;
82410;SDS011;74662;60.040;30.218;2023-12-07T04:24:42;15.10;;;5.22;;
82410;SDS011;74662;60.040;30.218;2023-12-07T04:25:42;14.23;;;5.43;;
82410;SDS011;74662;60.040;30.218;2023-12-07T04:26:43;16.73;;;4.25;;
82410;SDS011;74662;60.040;30.218;2023-12-07T04:27:43;16.95;;;4.90;;
82410;SDS011;74662;60.040;30.218;2023-12-07T04:28:44;12.27;;;5.38;;
82410;SDS011;74662;60.040;30.218;2023-12-07T04:29:45;12.68;;;4.65;;
82410;SDS011;74662;60.040;30.218;2023-12-07T04:30:45;14.43;;;5.18;;
82410;SDS011;74662;60.040;30.218;2023-12-07T04:31:46;15.93;;;5.43;;
82410;SDS011;74662;60.040;30.218;2023-12-07T04:32:46;9.20;;;3.58;;
82410;SDS011;74662;60.040;30.218;2023-12-07T04:33:47;13.68;;;5.18;;
82410;SDS011;74662;60.040;30.218;2023-12-07T04:34:47;13.68;;;4.95;;
82410;SDS011;74662;60.040;30.218;2023-12-07T04:35:48;15.45;;;4.40;;
82410;SDS011;74662;60.040;30.218;2023-12-07T04:36:49;11.68;;;4.78;;
82410;SDS011;74662;60.040;30.218;2023-12-07T04:37:49;10.65;;;3.60;;
82410;SDS011;74662;60.040;30.218;2023-12-07T04:38:50;16.10;;;5.57;;
82410;SDS011;74662;60.040;30.218;2023-12-07T04:39:50;17.88;;;4.45;;
82410;SDS011;74662;60.040;30.218;2023-12-07T04:40:51;11.25;;;4.18;;
82410;SDS011;74662;60.040;30.218;2023-12-07T04:41:51;15.65;;;5.13;;
82410;SDS011;74662;60.040;30.218;2023-12-07T04:42:52;12.50;;;5.50;;
82410;SDS011;74662;60.040;30.218;2023-12-07T04:43:52;16.02;;;4.30;;
82410;SDS011;74662;60.040;30.218;2023-12-07T04:44:53;12.43;;;5.13;;
82410;SDS011;74662;60.040;30.218;2023-12-07T04:45:53;14.70;;;4.57;;
82410;SDS011;74662;60.040;30.218;2023-12-07T04:46:54;14.18;;;5.68;;
82410;SDS011;74662;60.040;30.218;2023-12-07T04:47:55;16.30;;;4.80;;
82410;SDS011;74662;60.040;30.218;2023-12-07T04:48:57;11.38;;;4.20;;
82410;SDS011;74662;60.040;30.218;2023-12-07T04:49:57;17.33;;;5.22;;
82410;SDS011;74662;60.040;30.218;2023-12-07T04:50:58;17.15;;;5.70;;
82410;SDS011;74662;60.040;30.218;2023-12-07T04:51:58;16.35;;;5.88;;
82410;SDS011;74662;60.040;30.218;2023-12-07T04:52:59;13.23;;;4.57;;
82410;SDS011;74662;60.040;30.218;2023-12-07T04:54:00;15.90;;;5.70;;
82410;SDS011;74662;60.040;30.218;2023-12-07T04:55:00;13.32;;;5.25;;
82410;SDS011;74662;60.040;30.218;2023-12-07T04:56:01;17.58;;;4.95;;
82410;SDS011;74662;60.040;30.218;2023-12-07T04:57:01;15.63;;;5.20;;
82410;SDS011;74662;60.040;30.218;2023-12-07T04:58:02;15.25;;;5.60;;
82410;SDS011;74662;60.040;30.218;2023-12-07T04:59:03;19.90;;;5.88;;
82410;SDS011;74662;60.040;30.218;2023-12-07T05:00:03;16.20;;;5.47;;
82410;SDS011;74662;60.040;30.218;2023-12-07T05:01:09;13.82;;;4.82;;
82410;SDS011;74662;60.040;30.218;2023-12-07T05:02:09;14.20;;;4.80;;
82410;SDS011;74662;60.040;30.218;2023-12-07T05:03:11;14.10;;;5.28;;
82410;SDS011;74662;60.040;30.218;2023-12-07T05:04:12;12.52;;;4.30;;
82410;SDS011;74662;60.040;30.218;2023-12-07T05:05:12;12.07;;;5.20;;
82410;SDS011;74662;60.040;30.218;2023-12-07T05:06:14;13.13;;;4.40;;
82410;SDS011;74662;60.040;30.218;2023-12-07T05:07:15;12.90;;;4.40;;
82410;SDS011;74662;60.040;30.218;2023-12-07T05:08:15;16.13;;;4.55;;
82410;SDS011;74662;60.040;30.218;2023-12-07T05:09:16;12.32;;;5.32;;
82410;SDS011;74662;60.040;30.218;2023-12-07T05:10:17;13.35;;;5.32;;
82410;SDS011;74662;60.040;30.218;2023-12-07T05:11:17;10.32;;;4.20;;
82410;SDS011;74662;60.040;30.218;2023-12-07T05:12:18;12.82;;;4.72;;
82410;SDS011;74662;60.040;30.218;2023-12-07T05:13:18;10.85;;;4.57;;
82410;SDS011;74662;60.040;30.218;2023-12-07T05:14:19;12.43;;;4.30;;
82410;SDS011;74662;60.040;30.218;2023-12-07T05:15:19;14.63;;;5.13;;
82410;SDS011;74662;60.040;30.218;2023-12-07T05:16:20;18.35;;;5.50;;
82410;SDS011;74662;60.040;30.218;2023-12-07T05:17:20;9.48;;;4.63;;
82410;SDS011;74662;60.040;30.218;2023-12-07T05:18:21;12.98;;;4.35;;
82410;SDS011;74662;60.040;30.218;2023-12-07T05:19:22;9.45;;;4.15;;
82410;SDS011;74662;60.040;30.218;2023-12-07T05:20:23;11.93;;;3.90;;
82410;SDS011;74662;60.040;30.218;2023-12-07T05:21:25;11.43;;;4.78;;
82410;SDS011;74662;60.040;30.218;2023-12-07T05:22:26;13.27;;;4.13;;
82410;SDS011;74662;60.040;30.218;2023-12-07T05:23:26;11.77;;;4.47;;
82410;SDS011;74662;60.040;30.218;2023-12-07T05:24:27;15.35;;;4.95;;
82410;SDS011;74662;60.040;30.218;2023-12-07T05:25:28;14.75;;;4.45;;
82410;SDS011;74662;60.040;30.218;2023-12-07T05:26:28;12.13;;;4.30;;
82410;SDS011;74662;60.040;30.218;2023-12-07T05:27:32;12.77;;;4.35;;
82410;SDS011;74662;60.040;30.218;2023-12-07T05:28:33;13.57;;;3.95;;
82410;SDS011;74662;60.040;30.218;2023-12-07T05:29:33;12.73;;;5.30;;
82410;SDS011;74662;60.040;30.218;2023-12-07T05:30:35;9.35;;;3.97;;
82410;SDS011;74662;60.040;30.218;2023-12-07T05:31:36;9.98;;;4.22;;
82410;SDS011;74662;60.040;30.218;2023-12-07T05:32:37;13.07;;;4.82;;
82410;SDS011;74662;60.040;30.218;2023-12-07T05:33:37;8.75;;;4.72;;
82410;SDS011;74662;60.040;30.218;2023-12-07T05:34:38;15.43;;;4.75;;
82410;SDS011;74662;60.040;30.218;2023-12-07T05:35:39;15.93;;;5.43;;
82410;SDS011;74662;60.040;30.218;2023-12-07T05:36:39;8.43;;;3.65;;
82410;SDS011;74662;60.040;30.218;2023-12-07T05:37:40;10.10;;;4.00;;
82410;SDS011;74662;60.040;30.218;2023-12-07T05:38:40;16.05;;;4.95;;
82410;SDS011;74662;60.040;30.218;2023-12-07T05:39:41;15.80;;;4.95;;
82410;SDS011;74662;60.040;30.218;2023-12-07T05:40:41;13.50;;;4.85;;
82410;SDS011;74662;60.040;30.218;2023-12-07T05:41:42;9.85;;;3.53;;
82410;SDS011;74662;60.040;30.218;2023-12-07T05:42:43;9.55;;;3.92;;
82410;SDS011;74662;60.040;30.218;2023-12-07T05:43:43;13.23;;;4.80;;
82410;SDS011;74662;60.040;30.218;2023-12-07T05:44:44;11.48;;;4.57;;
82410;SDS011;74662;60.040;30.218;2023-12-07T05:45:44;15.15;;;4.88;;
82410;SDS011;74662;60.040;30.218;2023-12-07T05:46:45;11.90;;;4.43;;
82410;SDS011;74662;60.040;30.218;2023-12-07T05:47:45;14.23;;;5.47;;
82410;SDS011;74662;60.040;30.218;2023-12-07T05:48:46;11.93;;;4.28;;
82410;SDS011;74662;60.040;30.218;2023-12-07T05:49:46;10.57;;;4.28;;
82410;SDS011;74662;60.040;30.218;2023-12-07T05:50:47;11.50;;;4.28;;
82410;SDS011;74662;60.040;30.218;2023-12-07T05:51:48;16.33;;;5.50;;
82410;SDS011;74662;60.040;30.218;2023-12-07T05:52:49;13.98;;;4.90;;
82410;SDS011;74662;60.040;30.218;2023-12-07T05:53:49;13.75;;;5.03;;
82410;SDS011;74662;60.040;30.218;2023-12-07T05:54:50;10.90;;;4.30;;
82410;SDS011;74662;60.040;30.218;2023-12-07T05:55:50;12.07;;;4.35;;
82410;SDS011;74662;60.040;30.218;2023-12-07T05:56:51;11.52;;;4.22;;
82410;SDS011;74662;60.040;30.218;2023-12-07T05:57:51;8.23;;;3.97;;
82410;SDS011;74662;60.040;30.218;2023-12-07T05:58:52;11.77;;;4.43;;
82410;SDS011;74662;60.040;30.218;2023-12-07T05:59:52;14.35;;;4.85;;
82410;SDS011;74662;60.040;30.218;2023-12-07T06:00:53;9.85;;;4.55;;
82410;SDS011;74662;60.040;30.218;2023-12-07T06:01:53;11.23;;;4.47;;
82410;SDS011;74662;60.040;30.218;2023-12-07T06:02:54;11.63;;;4.45;;